Time;durP1;ratioP1;P1;durP2;ratioP2;P2;SDS_P1;SDS_P2;PMS_P1;PMS_P2;Temp;Humidity;BMP_temperature;BMP_pressure;BME280_temperature;BME280_humidity;BME280_pressure;Samples;Min_cycle;Max_cycle;Signal;HPM_P1;HPM_P2
2022/04/25 00:09:55;;;;;;;0.90;0.68;;;13.90;62.50;;;;;;20563903;28;20549;-74
2022/04/25 00:19:56;;;;;;;2.03;1.20;;;13.90;62.50;;;;;;20547813;28;20026;-74
2022/04/25 00:29:57;;;;;;;1.33;0.90;;;13.90;62.50;;;;;;20546323;28;20042;-74
2022/04/25 00:39:57;;;;;;;2.20;1.13;;;13.90;62.50;;;;;;20562162;28;20129;-74
2022/04/25 00:49:58;;;;;;;1.50;1.17;;;13.90;62.50;;;;;;20561019;28;20310;-74
2022/04/25 00:59:58;;;;;;;1.33;0.90;;;13.80;62.50;;;;;;20561509;28;20069;-74
2022/04/25 01:10:00;;;;;;;1.55;0.95;;;13.80;62.50;;;;;;20544598;28;20038;-75
2022/04/25 01:20:00;;;;;;;2.38;1.13;;;13.80;62.60;;;;;;20560894;28;20038;-74
2022/04/25 01:30:03;;;;;;;2.10;1.30;;;13.80;62.60;;;;;;20559869;28;20046;-74
2022/04/25 01:40:04;;;;;;;1.88;1.02;;;13.80;62.70;;;;;;20575625;28;20038;-75
2022/04/25 01:50:05;;;;;;;2.08;1.10;;;13.80;62.70;;;;;;20558024;28;20042;-74
2022/04/25 02:00:06;;;;;;;1.42;0.90;;;13.80;62.70;;;;;;20557469;28;20039;-74
2022/04/25 02:10:07;;;;;;;1.73;1.20;;;13.80;62.80;;;;;;20557190;28;20589;-75
2022/04/25 02:20:09;;;;;;;1.90;1.15;;;13.70;62.70;;;;;;20556269;28;20190;-74
2022/04/25 02:30:10;;;;;;;1.63;1.00;;;13.80;62.80;;;;;;20571717;28;20043;-76
2022/04/25 02:40:11;;;;;;;1.65;1.10;;;13.70;62.80;;;;;;21011006;23;20042;-74
2022/04/25 02:50:11;;;;;;;1.42;1.05;;;13.70;62.80;;;;;;20634505;28;20038;-74
2022/04/25 03:00:13;;;;;;;1.92;1.45;;;13.70;62.80;;;;;;20649291;28;20459;-74
2022/04/25 03:10:14;;;;;;;2.03;1.20;;;13.70;62.90;;;;;;20617721;28;20100;-74
2022/04/25 03:20:14;;;;;;;2.63;1.48;;;13.70;62.90;;;;;;20616195;28;20054;-74
2022/04/25 03:30:15;;;;;;;2.80;1.00;;;13.70;63.00;;;;;;20632063;28;20049;-74
2022/04/25 03:40:15;;;;;;;1.77;1.17;;;13.70;63.00;;;;;;20645973;28;20038;-74
2022/04/25 03:50:16;;;;;;;1.88;0.95;;;13.70;63.00;;;;;;20646111;28;20073;-74
2022/04/25 04:00:17;;;;;;;1.63;1.13;;;13.60;62.90;;;;;;20597433;28;20101;-74
2022/04/25 04:10:18;;;;;;;2.15;1.00;;;13.60;62.90;;;;;;20611559;28;20069;-74
2022/04/25 04:20:19;;;;;;;2.47;1.38;;;13.60;63.00;;;;;;20612187;28;20034;-74
2022/04/25 04:30:20;;;;;;;3.13;1.40;;;13.60;63.00;;;;;;20627201;28;20113;-74
2022/04/25 04:40:29;;;;;;;2.08;1.13;;;13.60;63.00;;;;;;20595048;28;20049;-74
2022/04/25 04:50:30;;;;;;;1.65;1.25;;;13.60;63.00;;;;;;20623602;28;20121;-85
2022/04/25 05:00:30;;;;;;;2.75;1.63;;;13.60;63.10;;;;;;20578236;28;20573;-80
2022/04/25 05:10:31;;;;;;;2.77;1.00;;;13.60;63.10;;;;;;20610740;28;20039;-80
2022/04/25 05:20:31;;;;;;;4.50;1.10;;;13.50;63.10;;;;;;20618388;28;20333;-78
2022/04/25 05:30:32;;;;;;;5.13;1.58;;;13.50;63.10;;;;;;20578235;28;20085;-78
2022/04/25 05:40:32;;;;;;;3.17;1.58;;;13.50;63.10;;;;;;20565742;28;20042;-80
2022/04/25 06:00:52;;;;;;;2.38;1.27;;;13.50;63.00;;;;;;20591131;28;20069;-79
2022/04/25 06:10:53;;;;;;;2.53;1.60;;;13.50;63.00;;;;;;20630760;28;20385;-79
2022/04/25 06:20:53;;;;;;;7.78;1.75;;;13.50;63.00;;;;;;20671231;28;20745;-78
2022/04/25 06:30:54;;;;;;;2.50;1.48;;;13.60;63.10;;;;;;20619935;28;20034;-78
2022/04/25 06:40:56;;;;;;;2.72;1.35;;;13.50;63.10;;;;;;20618811;28;20042;-79
2022/04/25 06:50:57;;;;;;;3.33;1.35;;;13.50;63.20;;;;;;20575053;28;20050;-80
2022/04/25 07:00:57;;;;;;;2.58;1.27;;;13.50;63.20;;;;;;20617657;28;20042;-78
2022/04/25 07:10:58;;;;;;;4.05;1.42;;;13.50;63.20;;;;;;20664040;28;20045;-79
2022/04/25 07:20:58;;;;;;;4.18;1.45;;;13.50;63.20;;;;;;20576850;28;20050;-78
2022/04/25 07:30:59;;;;;;;2.22;1.17;;;13.50;63.20;;;;;;20552093;28;20148;-78
2022/04/25 07:41:00;;;;;;;3.67;1.48;;;13.50;63.20;;;;;;20569435;28;20038;-85
2022/04/25 07:51:00;;;;;;;3.10;1.40;;;13.50;63.20;;;;;;20596183;28;20085;-86
2022/04/25 08:01:02;;;;;;;2.03;1.30;;;13.50;63.20;;;;;;20632213;28;20038;-83
2022/04/25 08:11:02;;;;;;;4.20;1.38;;;13.50;63.20;;;;;;20641433;28;20042;-82
2022/04/25 08:21:03;;;;;;;2.20;1.27;;;13.50;63.20;;;;;;20574072;28;20504;-85
2022/04/25 08:31:05;;;;;;;2.58;1.40;;;13.50;63.30;;;;;;20563165;28;20393;-75
2022/04/25 08:41:06;;;;;;;1.65;1.27;;;13.50;63.30;;;;;;20577588;28;20038;-75
2022/04/25 08:51:07;;;;;;;2.60;1.10;;;13.50;63.30;;;;;;20561020;28;20064;-74
2022/04/25 09:01:10;;;;;;;1.67;0.90;;;13.50;63.30;;;;;;20582452;28;20484;-74
2022/04/25 09:21:30;;;;;;;1.77;1.10;;;13.50;63.30;;;;;;20560642;28;20078;-74
2022/04/25 09:31:32;;;;;;;2.95;1.17;;;13.50;63.30;;;;;;20543985;28;20038;-75
2022/04/25 09:41:33;;;;;;;2.83;1.50;;;13.50;63.30;;;;;;20602278;28;20034;-74
2022/04/25 09:51:34;;;;;;;1.17;0.98;;;13.50;63.20;;;;;;20575242;28;20460;-75
2022/04/25 10:01:39;;;;;;;4.15;1.63;;;13.50;63.20;;;;;;20575342;28;20054;-73
2022/04/25 10:11:40;;;;;;;2.53;1.55;;;13.40;63.20;;;;;;20588597;28;20393;-78
2022/04/25 10:21:40;;;;;;;3.00;1.35;;;13.50;63.20;;;;;;20571504;28;20042;-75
2022/04/25 10:31:42;;;;;;;2.30;1.40;;;13.40;63.20;;;;;;20571105;28;20134;-74
2022/04/25 10:52:33;;;;;;;5.82;1.40;;;13.50;63.10;;;;;;20587181;28;20035;-75
2022/04/25 11:02:34;;;;;;;2.25;1.23;;;13.50;63.20;;;;;;20586619;28;20043;-73
2022/04/25 11:12:55;;;;;;;5.05;1.45;;;13.50;63.80;;;;;;20573322;28;20044;-73
2022/04/25 11:22:56;;;;;;;4.20;0.98;;;13.60;63.20;;;;;;20614412;28;20120;-76
2022/04/25 11:33:10;;;;;;;3.72;1.20;;;13.60;63.20;;;;;;20631172;28;20142;-74
2022/04/25 11:43:10;;;;;;;2.70;1.38;;;13.60;63.20;;;;;;20662170;28;20034;-77
2022/04/25 11:53:11;;;;;;;3.05;1.38;;;13.60;63.30;;;;;;20585170;28;20090;-77
2022/04/25 12:03:19;;;;;;;4.78;2.22;;;13.60;63.30;;;;;;20548513;28;20034;-76
2022/04/25 12:23:45;;;;;;;2.22;1.40;;;13.60;63.40;;;;;;20621446;28;20031;-78
2022/04/25 12:33:48;;;;;;;2.23;1.30;;;13.60;63.40;;;;;;20612450;28;20420;-74
2022/04/25 12:43:50;;;;;;;1.95;1.00;;;13.60;63.50;;;;;;20626812;28;20479;-81
2022/04/25 12:53:51;;;;;;;3.92;1.63;;;13.60;63.50;;;;;;20588300;28;20505;-80
2022/04/25 13:04:04;;;;;;;2.38;1.40;;;13.60;63.50;;;;;;20578545;28;20072;-79
2022/04/25 13:14:05;;;;;;;2.55;1.42;;;13.70;63.50;;;;;;20596057;28;20035;-80
2022/04/25 13:24:06;;;;;;;5.88;1.40;;;13.70;63.40;;;;;;20595386;28;20564;-78
2022/04/25 13:34:07;;;;;;;1.88;1.10;;;13.80;64.00;;;;;;20620483;28;20393;-77
2022/04/25 13:44:09;;;;;;;2.60;1.02;;;13.80;63.20;;;;;;20644345;28;20061;-76
2022/04/25 13:54:10;;;;;;;2.05;1.33;;;13.90;63.20;;;;;;20545372;28;20579;-71
2022/04/25 14:04:10;;;;;;;2.38;1.05;;;13.80;63.10;;;;;;20628608;28;20256;-76
2022/04/25 14:14:13;;;;;;;2.45;1.20;;;13.80;63.20;;;;;;20599424;28;20290;-77
2022/04/25 14:24:13;;;;;;;3.40;1.98;;;13.90;63.20;;;;;;20588180;28;20409;-78
2022/04/25 14:34:14;;;;;;;2.15;1.35;;;13.80;63.30;;;;;;20554843;28;20047;-74
2022/04/25 14:44:14;;;;;;;1.80;1.10;;;13.80;63.30;;;;;;20571030;28;20129;-76
2022/04/25 14:54:21;;;;;;;1.95;1.20;;;13.80;63.40;;;;;;20553101;28;20031;-73
2022/04/25 15:04:21;;;;;;;4.45;1.15;;;13.80;63.40;;;;;;20625410;28;20470;-74
2022/04/25 15:14:23;;;;;;;10.17;1.50;;;13.80;63.50;;;;;;20631775;28;20141;-73
2022/04/25 15:24:24;;;;;;;10.18;1.73;;;13.80;63.40;;;;;;20600956;28;20282;-73
2022/04/25 15:34:24;;;;;;;2.88;1.52;;;13.90;63.30;;;;;;20550603;28;20055;-80
2022/04/25 15:44:25;;;;;;;1.95;1.08;;;14.00;63.10;;;;;;20605602;28;20037;-78
2022/04/25 16:04:44;;;;;;;2.85;1.27;;;14.20;63.00;;;;;;20658896;28;20049;-74
2022/04/25 16:14:45;;;;;;;1.35;0.95;;;14.30;62.90;;;;;;20662430;28;20397;-74
2022/04/25 16:24:46;;;;;;;3.63;1.50;;;14.30;62.80;;;;;;20643185;28;20034;-74
2022/04/25 16:34:46;;;;;;;4.13;1.10;;;14.40;62.70;;;;;;20640235;28;20047;-80
2022/04/25 16:44:47;;;;;;;4.93;1.40;;;14.30;62.70;;;;;;20636882;28;20042;-80
2022/04/25 16:54:49;;;;;;;2.75;1.02;;;14.30;62.80;;;;;;20563780;28;20053;-78
2022/04/25 17:04:49;;;;;;;4.30;1.00;;;14.30;62.90;;;;;;20533310;28;20113;-81
2022/04/25 17:14:50;;;;;;;2.33;1.30;;;14.20;63.10;;;;;;20537774;28;20038;-79
2022/04/25 17:24:50;;;;;;;1.70;1.20;;;14.10;63.10;;;;;;20633003;28;20121;-82
